createdAt,value
2023-01-10T00:00:41.264Z,54.40
2023-01-10T00:03:10.372Z,54.49
2023-01-10T00:05:38.770Z,54.25
2023-01-10T00:08:07.165Z,54.38
2023-01-10T00:10:35.048Z,54.56
2023-01-10T00:13:20.860Z,54.77
2023-01-10T00:15:48.237Z,54.46
2023-01-10T00:18:15.079Z,54.50
2023-01-10T00:20:44.459Z,54.52
2023-01-10T00:23:11.453Z,54.63
2023-01-10T00:25:38.629Z,54.59
2023-01-10T00:28:19.911Z,54.64
2023-01-10T00:30:54.923Z,54.81
2023-01-10T00:33:22.184Z,54.41
2023-01-10T00:35:49.169Z,54.89
2023-01-10T00:38:16.737Z,54.71
2023-01-10T00:40:43.571Z,54.75
2023-01-10T00:43:29.190Z,55.27
2023-01-10T00:45:57.365Z,54.78
2023-01-10T00:48:24.240Z,55.09
2023-01-10T00:50:51.040Z,54.96
2023-01-10T00:53:17.859Z,55.18
2023-01-10T00:55:44.702Z,54.94
2023-01-10T00:58:13.583Z,55.09
2023-01-10T01:00:40.800Z,55.35
2023-01-10T01:03:08.018Z,55.05
2023-01-10T01:05:41.162Z,55.21
2023-01-10T01:08:07.939Z,55.19
2023-01-10T01:10:34.975Z,55.08
2023-01-10T01:13:21.941Z,54.84
2023-01-10T01:15:49.342Z,54.71
2023-01-10T01:18:20.957Z,54.75
2023-01-10T01:20:52.996Z,54.77
2023-01-10T01:23:19.754Z,54.59
2023-01-10T01:25:51.687Z,54.80
2023-01-10T01:28:18.765Z,54.24
2023-01-10T01:30:45.915Z,54.77
2023-01-10T01:33:13.391Z,54.20
2023-01-10T01:35:48.836Z,54.40
2023-01-10T01:38:16.777Z,54.35
2023-01-10T01:40:44.825Z,54.51
2023-01-10T01:43:31.757Z,54.76
2023-01-10T01:46:02.998Z,54.65
2023-01-10T01:48:38.221Z,54.71
2023-01-10T01:51:20.664Z,54.81
2023-01-10T01:54:07.675Z,54.96
2023-01-10T01:56:43.706Z,54.58
2023-01-10T01:59:20.563Z,55.16
2023-01-10T02:01:51.196Z,55.04
2023-01-10T02:04:23.265Z,55.30
2023-01-10T02:06:53.701Z,55.25
2023-01-10T02:09:45.659Z,55.76
2023-01-10T02:12:13.914Z,55.63
2023-01-10T02:14:43.351Z,55.66
2023-01-10T02:17:11.123Z,55.42
2023-01-10T02:19:55.297Z,55.58
2023-01-10T02:22:30.630Z,55.58
2023-01-10T02:25:28.044Z,55.84
2023-01-10T02:28:39.464Z,56.07
2023-01-10T02:31:36.927Z,56.02
2023-01-10T02:34:42.841Z,56.49
2023-01-10T02:37:46.719Z,56.51
2023-01-10T02:40:27.033Z,56.59
2023-01-10T02:43:19.228Z,56.39
2023-01-10T02:45:58.284Z,56.93
2023-01-10T02:48:25.106Z,57.01
2023-01-10T02:51:08.564Z,57.16
2023-01-10T02:53:45.229Z,57.08
2023-01-10T02:56:57.481Z,57.43
2023-01-10T03:00:01.297Z,57.56
2023-01-10T03:02:33.564Z,57.60
2023-01-10T03:05:25.820Z,57.25
2023-01-10T03:08:26.528Z,57.81
2023-01-10T03:11:03.366Z,57.49
2023-01-10T03:13:57.684Z,57.41
2023-01-10T03:16:29.595Z,57.47
2023-01-10T03:19:08.475Z,57.75
2023-01-10T03:21:38.619Z,57.17
2023-01-10T03:24:20.007Z,57.26
2023-01-10T03:26:58.239Z,57.42
2023-01-10T03:29:32.721Z,57.56
2023-01-10T03:32:05.587Z,57.17
2023-01-10T03:34:33.152Z,57.22
2023-01-10T03:37:20.077Z,56.91
2023-01-10T03:40:22.470Z,57.20
2023-01-10T03:43:23.693Z,57.48
2023-01-10T03:46:23.919Z,57.22
2023-01-10T03:48:51.325Z,57.15
2023-01-10T03:51:19.507Z,57.16
2023-01-10T03:53:46.296Z,56.95
2023-01-10T03:56:16.169Z,57.16
2023-01-10T03:58:42.875Z,56.82
2023-01-10T04:01:09.914Z,57.14
2023-01-10T04:03:36.736Z,56.78
2023-01-10T04:06:04.272Z,56.91
2023-01-10T04:08:31.070Z,56.80
2023-01-10T04:10:57.819Z,56.80
2023-01-10T04:13:24.579Z,56.84
2023-01-10T04:15:51.478Z,56.59
2023-01-10T04:18:19.095Z,56.66
2023-01-10T04:20:45.873Z,56.54
2023-01-10T04:23:12.676Z,56.10
2023-01-10T04:25:39.483Z,56.25
2023-01-10T04:28:06.235Z,56.27
2023-01-10T04:30:33.025Z,56.33
2023-01-10T04:32:59.811Z,55.81
2023-01-10T04:35:26.591Z,56.26
2023-01-10T04:37:53.375Z,56.19
2023-01-10T04:40:23.266Z,55.66
2023-01-10T04:42:49.954Z,55.61
2023-01-10T04:45:18.288Z,55.44
2023-01-10T04:47:51.489Z,55.44
2023-01-10T04:50:18.617Z,55.73
2023-01-10T04:52:45.415Z,55.86
2023-01-10T04:55:12.233Z,55.42
2023-01-10T04:57:39.108Z,55.17
2023-01-10T05:00:06.862Z,55.20
2023-01-10T05:02:33.786Z,55.04
2023-01-10T05:05:00.650Z,55.01
2023-01-10T05:07:27.432Z,55.33
2023-01-10T05:09:54.215Z,55.23
2023-01-10T05:12:20.976Z,55.35
2023-01-10T05:14:47.786Z,55.39
2023-01-10T05:17:14.566Z,55.31
2023-01-10T05:19:41.343Z,55.10
2023-01-10T05:22:08.100Z,54.80
2023-01-10T05:24:34.846Z,54.59
2023-01-10T05:27:01.603Z,54.81
2023-01-10T05:29:28.377Z,54.92
2023-01-10T05:31:55.373Z,54.28
2023-01-10T05:34:22.138Z,54.16
2023-01-10T05:36:48.913Z,53.99
2023-01-10T05:39:15.715Z,53.98
2023-01-10T05:41:42.620Z,54.03
2023-01-10T05:44:09.445Z,53.77
2023-01-10T05:46:36.311Z,53.51
2023-01-10T05:49:03.064Z,53.66
2023-01-10T05:51:30.098Z,53.28
2023-01-10T05:53:58.425Z,53.31
2023-01-10T05:56:26.088Z,53.36
2023-01-10T05:59:04.342Z,53.07
2023-01-10T06:01:32.512Z,53.07
2023-01-10T06:04:00.700Z,52.81
2023-01-10T06:06:27.533Z,52.96
2023-01-10T06:08:56.296Z,52.97
2023-01-10T06:11:29.024Z,52.60
2023-01-10T06:13:58.739Z,52.61
2023-01-10T06:16:25.639Z,52.53
2023-01-10T06:18:52.514Z,52.24
2023-01-10T06:21:19.275Z,52.47
2023-01-10T06:23:46.024Z,52.36
2023-01-10T06:26:13.126Z,52.29
2023-01-10T06:28:41.071Z,52.16
2023-01-10T06:31:08.388Z,52.03
2023-01-10T06:33:35.758Z,52.23
2023-01-10T06:36:02.782Z,51.92
2023-01-10T06:38:29.545Z,52.00
2023-01-10T06:40:56.312Z,51.83
2023-01-10T06:43:25.777Z,52.29
2023-01-10T06:45:53.153Z,52.07
2023-01-10T06:48:19.937Z,52.19
2023-01-10T06:50:46.709Z,52.09
2023-01-10T06:53:13.540Z,52.34
2023-01-10T06:55:40.279Z,51.86
2023-01-10T06:58:07.022Z,52.13
2023-01-10T07:00:33.807Z,52.14
2023-01-10T07:03:02.210Z,52.07
2023-01-10T07:05:30.303Z,51.91
2023-01-10T07:07:58.590Z,52.16
2023-01-10T07:10:25.358Z,52.32
2023-01-10T07:12:54.699Z,51.95
2023-01-10T07:15:21.483Z,52.30
2023-01-10T07:17:48.276Z,51.96
2023-01-10T07:20:15.125Z,52.21
2023-01-10T07:22:41.900Z,52.28
2023-01-10T07:25:09.003Z,51.78
2023-01-10T07:27:36.003Z,51.84
2023-01-10T07:30:02.908Z,51.89
2023-01-10T07:32:29.768Z,51.87
2023-01-10T07:34:56.541Z,51.71
2023-01-10T07:37:23.389Z,51.73
2023-01-10T07:39:50.176Z,51.51
2023-01-10T07:42:16.996Z,52.05
2023-01-10T07:44:43.805Z,52.09
2023-01-10T07:47:10.568Z,51.71
2023-01-10T07:49:37.322Z,52.21
2023-01-10T07:52:05.028Z,51.90
2023-01-10T07:54:31.821Z,52.04
2023-01-10T07:56:58.731Z,52.33
2023-01-10T07:59:25.793Z,52.11
2023-01-10T08:01:53.936Z,52.47
2023-01-10T08:04:20.884Z,52.13
2023-01-10T08:06:47.809Z,52.25
2023-01-10T08:09:14.659Z,51.85
2023-01-10T08:11:42.412Z,52.29
2023-01-10T08:14:09.291Z,52.00
2023-01-10T08:16:36.114Z,52.08
2023-01-10T08:19:02.927Z,52.16
2023-01-10T08:21:29.776Z,52.10
2023-01-10T08:23:56.661Z,51.79
2023-01-10T08:26:23.486Z,52.09
2023-01-10T08:28:50.265Z,52.03
2023-01-10T08:31:17.112Z,51.91
2023-01-10T08:33:43.923Z,52.34
2023-01-10T08:36:22.109Z,52.13
2023-01-10T08:38:50.772Z,51.88
2023-01-10T08:41:17.545Z,51.76
2023-01-10T08:43:44.320Z,51.98
2023-01-10T08:46:11.151Z,51.95
2023-01-10T08:48:38.009Z,51.99
2023-01-10T08:51:09.684Z,52.23
2023-01-10T08:53:36.445Z,52.04
2023-01-10T08:56:05.528Z,51.75
2023-01-10T08:58:32.488Z,51.87
2023-01-10T09:00:59.417Z,51.86
2023-01-10T09:03:26.203Z,51.82
2023-01-10T09:05:52.939Z,51.99
2023-01-10T09:08:19.722Z,51.90
2023-01-10T09:10:49.428Z,51.73
2023-01-10T09:13:16.586Z,51.89
2023-01-10T09:15:44.657Z,51.86
2023-01-10T09:18:14.437Z,51.93
2023-01-10T09:20:48.742Z,51.95
2023-01-10T09:23:20.439Z,51.52
2023-01-10T09:25:49.771Z,51.69
2023-01-10T09:28:17.956Z,51.67
2023-01-10T09:30:45.360Z,51.42
2023-01-10T09:33:13.331Z,51.82
2023-01-10T09:35:41.900Z,51.71
2023-01-10T09:38:14.594Z,51.68
2023-01-10T09:41:32.994Z,52.01
2023-01-10T09:44:39.482Z,51.77
2023-01-10T09:47:27.316Z,51.74
2023-01-10T09:50:25.952Z,51.86
2023-01-10T09:53:04.256Z,51.62
2023-01-10T09:55:33.952Z,51.53
2023-01-10T09:58:06.795Z,51.31
2023-01-10T10:01:15.291Z,51.41
2023-01-10T10:04:05.576Z,51.25
2023-01-10T10:06:34.408Z,51.46
2023-01-10T10:09:04.136Z,51.21
2023-01-10T10:11:57.500Z,51.29
2023-01-10T10:15:05.032Z,51.30
2023-01-10T10:17:59.645Z,51.40
2023-01-10T10:21:09.387Z,51.34
2023-01-10T10:23:49.005Z,51.01
2023-01-10T10:26:35.564Z,51.17
2023-01-10T10:29:25.215Z,51.05
2023-01-10T10:32:22.591Z,51.16
2023-01-10T10:35:27.990Z,51.02
2023-01-10T10:38:03.601Z,51.24
2023-01-10T10:40:37.457Z,51.90
2023-01-10T10:43:26.868Z,52.00
2023-01-10T10:46:09.775Z,52.59
2023-01-10T10:48:57.691Z,52.91
2023-01-10T10:51:41.514Z,53.03
2023-01-10T10:54:13.476Z,52.74
2023-01-10T10:56:40.564Z,52.47
2023-01-10T10:59:07.603Z,52.10
2023-01-10T11:01:34.535Z,51.64
2023-01-10T11:04:07.540Z,50.90
2023-01-10T11:06:38.433Z,49.96
2023-01-10T11:09:06.742Z,49.14
2023-01-10T11:11:44.680Z,49.20
2023-01-10T11:14:12.947Z,48.68
2023-01-10T11:16:44.959Z,48.16
2023-01-10T11:19:29.317Z,48.10
2023-01-10T11:22:08.145Z,47.68
2023-01-10T11:24:39.814Z,47.69
2023-01-10T11:27:20.050Z,47.51
2023-01-10T11:29:50.779Z,47.56
2023-01-10T11:32:21.033Z,47.53
2023-01-10T11:34:53.831Z,47.73
2023-01-10T11:37:29.032Z,47.54
2023-01-10T11:40:20.817Z,48.34
2023-01-10T11:42:47.841Z,49.27
2023-01-10T11:45:17.664Z,50.27
2023-01-10T11:48:11.975Z,50.17
2023-01-10T11:50:45.496Z,49.88
2023-01-10T11:53:42.122Z,49.35
2023-01-10T11:56:23.555Z,48.22
2023-01-10T11:58:50.559Z,47.47
2023-01-10T12:01:42.273Z,46.98
2023-01-10T12:04:16.045Z,46.11
2023-01-10T12:07:04.242Z,45.47
2023-01-10T12:09:44.351Z,44.44
2023-01-10T12:12:25.839Z,43.86
2023-01-10T12:14:56.004Z,43.40
2023-01-10T12:17:35.445Z,43.25
2023-01-10T12:20:09.417Z,41.75
2023-01-10T12:22:42.120Z,40.54
2023-01-10T12:25:23.936Z,40.14
2023-01-10T12:27:51.153Z,40.18
2023-01-10T12:30:30.822Z,39.23
2023-01-10T12:33:00.828Z,39.54
2023-01-10T12:35:43.606Z,40.65
2023-01-10T12:38:45.741Z,40.13
2023-01-10T12:41:41.602Z,40.42
2023-01-10T12:44:25.443Z,40.90
2023-01-10T12:47:06.888Z,40.85
2023-01-10T12:49:45.257Z,41.22
2023-01-10T12:52:27.463Z,41.57
2023-01-10T12:54:54.238Z,41.62
2023-01-10T12:57:31.582Z,41.96
2023-01-10T13:00:03.902Z,42.42
2023-01-10T13:02:45.179Z,42.74
2023-01-10T13:05:23.772Z,42.88
2023-01-10T13:07:56.068Z,43.03
2023-01-10T13:10:24.690Z,43.31
2023-01-10T13:13:36.687Z,43.83
2023-01-10T13:16:27.597Z,43.78
2023-01-10T13:19:11.362Z,44.02
2023-01-10T13:21:42.872Z,43.96
2023-01-10T13:24:15.427Z,44.04
2023-01-10T13:26:56.414Z,43.90
2023-01-10T13:29:42.023Z,43.82
2023-01-10T13:32:25.308Z,43.48
2023-01-10T13:34:52.782Z,43.18
2023-01-10T13:37:27.943Z,43.45
2023-01-10T13:40:01.869Z,43.45
2023-01-10T13:42:51.085Z,43.62
2023-01-10T13:45:24.348Z,43.55
2023-01-10T13:47:56.999Z,43.40
2023-01-10T13:50:23.732Z,43.22
2023-01-10T13:53:06.886Z,42.93
2023-01-10T13:55:39.431Z,42.80
2023-01-10T13:58:15.772Z,43.01
2023-01-10T14:01:13.903Z,43.24
2023-01-10T14:03:50.726Z,43.00
2023-01-10T14:06:37.869Z,43.01
2023-01-10T14:09:26.387Z,43.05
2023-01-10T14:11:58.197Z,42.93
2023-01-10T14:14:31.372Z,43.16
2023-01-10T14:17:13.797Z,43.37
2023-01-10T14:19:43.566Z,43.35
2023-01-10T14:22:35.128Z,43.55
2023-01-10T14:25:24.329Z,43.58
2023-01-10T14:27:52.520Z,43.87
2023-01-10T14:30:32.878Z,43.56
2023-01-10T14:33:22.100Z,43.69
2023-01-10T14:35:58.635Z,43.79
2023-01-10T14:38:29.827Z,43.76
2023-01-10T14:41:07.025Z,43.92
2023-01-10T14:43:43.568Z,43.75
2023-01-10T14:46:21.341Z,44.02
2023-01-10T14:48:51.673Z,44.08
2023-01-10T14:51:28.800Z,44.14
2023-01-10T14:53:57.047Z,44.01
2023-01-10T14:56:35.717Z,44.20
2023-01-10T14:59:24.901Z,44.01
2023-01-10T15:02:01.513Z,44.05
2023-01-10T15:04:33.795Z,44.38
2023-01-10T15:07:23.718Z,44.42
2023-01-10T15:09:52.161Z,44.54
2023-01-10T15:12:22.607Z,44.56
2023-01-10T15:15:01.874Z,45.00
2023-01-10T15:17:29.043Z,44.84
2023-01-10T15:19:56.476Z,44.96
2023-01-10T15:22:33.889Z,44.91
2023-01-10T15:25:31.422Z,45.41
2023-01-10T15:27:59.454Z,45.50
2023-01-10T15:30:46.785Z,45.59
2023-01-10T15:33:18.050Z,45.48
2023-01-10T15:35:47.014Z,45.44
2023-01-10T15:38:20.876Z,45.74
2023-01-10T15:40:58.623Z,45.57
2023-01-10T15:43:31.550Z,45.59
2023-01-10T15:46:00.644Z,45.64
2023-01-10T15:48:35.563Z,45.72
2023-01-10T15:51:37.734Z,45.83
2023-01-10T15:54:19.674Z,45.80
2023-01-10T15:56:52.168Z,45.84
2023-01-10T15:59:36.965Z,45.98
2023-01-10T16:02:29.338Z,46.10
2023-01-10T16:05:05.782Z,46.47
2023-01-10T16:07:42.545Z,46.26
2023-01-10T16:10:25.723Z,46.29
2023-01-10T16:13:12.143Z,46.43
2023-01-10T16:15:44.490Z,46.72
2023-01-10T16:18:11.287Z,46.88
2023-01-10T16:20:47.229Z,46.67
2023-01-10T16:23:19.182Z,46.98
2023-01-10T16:25:50.285Z,47.21
2023-01-10T16:28:19.031Z,46.98
2023-01-10T16:30:49.100Z,47.30
2023-01-10T16:33:18.928Z,47.46
2023-01-10T16:35:47.178Z,47.23
2023-01-10T16:38:15.634Z,47.00
2023-01-10T16:40:51.450Z,47.51
2023-01-10T16:43:19.237Z,47.23
2023-01-10T16:45:52.302Z,47.14
2023-01-10T16:48:20.219Z,47.20
2023-01-10T16:50:48.608Z,47.41
2023-01-10T16:53:17.733Z,47.52
2023-01-10T16:55:50.823Z,47.56
2023-01-10T16:58:19.567Z,47.70
2023-01-10T17:00:50.718Z,47.65
2023-01-10T17:03:23.703Z,47.56
2023-01-10T17:05:50.661Z,47.52
2023-01-10T17:08:20.911Z,47.80
2023-01-10T17:10:52.908Z,47.82
2023-01-10T17:13:42.155Z,47.73
2023-01-10T17:16:09.256Z,48.14
2023-01-10T17:18:38.031Z,47.71
2023-01-10T17:21:06.318Z,47.91
2023-01-10T17:23:33.194Z,48.12
2023-01-10T17:26:05.547Z,47.87
2023-01-10T17:28:32.395Z,47.79
2023-01-10T17:30:59.609Z,47.66
2023-01-10T17:33:27.348Z,47.88
2023-01-10T17:35:56.444Z,47.82
2023-01-10T17:38:25.660Z,47.79
2023-01-10T17:40:52.809Z,47.85
2023-01-10T17:43:21.405Z,47.57
2023-01-10T17:45:50.939Z,47.97
2023-01-10T17:48:19.533Z,47.78
2023-01-10T17:50:48.967Z,47.93
2023-01-10T17:53:17.412Z,47.77
2023-01-10T17:55:46.214Z,47.49
2023-01-10T17:58:13.581Z,47.68
2023-01-10T18:00:40.963Z,47.69
2023-01-10T18:03:08.606Z,47.63
2023-01-10T18:05:35.787Z,47.67
2023-01-10T18:08:05.446Z,47.68
2023-01-10T18:10:33.602Z,47.25
2023-01-10T18:13:03.136Z,47.54
2023-01-10T18:15:30.163Z,47.32
2023-01-10T18:17:57.804Z,47.19
2023-01-10T18:20:24.667Z,47.20
2023-01-10T18:23:09.993Z,47.23
2023-01-10T18:25:36.786Z,47.73
2023-01-10T18:28:03.611Z,47.46
2023-01-10T18:30:30.670Z,47.34
2023-01-10T18:32:57.502Z,48.00
2023-01-10T18:35:24.289Z,47.60
2023-01-10T18:37:51.352Z,47.59
2023-01-10T18:40:18.286Z,47.56
2023-01-10T18:42:45.730Z,47.45
2023-01-10T18:45:13.826Z,47.49
2023-01-10T18:47:40.666Z,47.91
2023-01-10T18:50:07.757Z,47.38
2023-01-10T18:52:34.545Z,47.33
2023-01-10T18:55:02.473Z,46.89
2023-01-10T18:57:32.425Z,47.29
2023-01-10T18:59:59.215Z,47.16
2023-01-10T19:02:26.109Z,47.01
2023-01-10T19:04:52.917Z,46.81
2023-01-10T19:07:19.728Z,47.04
2023-01-10T19:09:46.555Z,47.10
2023-01-10T19:12:13.386Z,46.89
2023-01-10T19:14:40.199Z,47.07
2023-01-10T19:17:07.064Z,46.88
2023-01-10T19:19:33.844Z,46.83
2023-01-10T19:22:00.645Z,47.16
2023-01-10T19:24:29.678Z,46.84
2023-01-10T19:26:56.990Z,46.94
2023-01-10T19:29:24.538Z,46.87
2023-01-10T19:31:52.519Z,47.30
2023-01-10T19:34:19.467Z,47.39
2023-01-10T19:36:46.294Z,47.35
2023-01-10T19:39:14.146Z,47.53
2023-01-10T19:41:41.918Z,47.13
2023-01-10T19:44:15.303Z,47.46
2023-01-10T19:46:44.052Z,47.30
2023-01-10T19:49:17.112Z,47.52
2023-01-10T19:51:51.116Z,47.81
2023-01-10T19:54:18.271Z,47.39
2023-01-10T19:56:45.087Z,47.38
2023-01-10T19:59:14.602Z,47.37
2023-01-10T20:01:41.534Z,47.45
2023-01-10T20:04:08.355Z,47.47
2023-01-10T20:06:38.522Z,47.59
2023-01-10T20:09:06.438Z,47.48
2023-01-10T20:11:38.085Z,47.26
2023-01-10T20:14:19.613Z,47.45
2023-01-10T20:16:48.542Z,47.28
2023-01-10T20:19:17.235Z,47.41
2023-01-10T20:21:44.626Z,47.25
2023-01-10T20:24:20.150Z,47.25
2023-01-10T20:26:49.910Z,47.25
2023-01-10T20:29:18.606Z,47.33
2023-01-10T20:31:49.571Z,47.37
2023-01-10T20:34:16.453Z,47.03
2023-01-10T20:36:43.259Z,47.19
2023-01-10T20:39:10.121Z,47.46
2023-01-10T20:41:37.118Z,47.12
2023-01-10T20:44:04.104Z,47.54
2023-01-10T20:46:32.759Z,47.54
2023-01-10T20:49:02.903Z,47.45
2023-01-10T20:51:33.337Z,47.74
2023-01-10T20:54:00.780Z,47.46
2023-01-10T20:56:30.476Z,47.53
2023-01-10T20:58:58.484Z,47.71
2023-01-10T21:01:34.453Z,47.60
2023-01-10T21:04:04.343Z,47.53
2023-01-10T21:06:31.295Z,47.77
2023-01-10T21:08:58.131Z,47.71
2023-01-10T21:11:24.941Z,47.92
2023-01-10T21:13:51.827Z,47.74
2023-01-10T21:16:20.815Z,47.38
2023-01-10T21:18:47.890Z,47.68
2023-01-10T21:21:18.059Z,47.73
2023-01-10T21:23:45.116Z,48.23
2023-01-10T21:26:14.878Z,48.00
2023-01-10T21:28:48.325Z,48.14
2023-01-10T21:31:21.174Z,48.27
2023-01-10T21:33:49.355Z,48.12
2023-01-10T21:36:16.680Z,48.33
2023-01-10T21:38:44.829Z,48.32
2023-01-10T21:41:35.482Z,47.97
2023-01-10T21:44:03.873Z,47.96
2023-01-10T21:46:30.963Z,48.15
2023-01-10T21:48:57.751Z,48.19
2023-01-10T21:51:24.583Z,48.02
2023-01-10T21:53:51.528Z,48.18
2023-01-10T21:56:18.347Z,48.04
2023-01-10T21:58:45.809Z,48.05
2023-01-10T22:01:12.646Z,47.92
2023-01-10T22:03:39.975Z,47.97
2023-01-10T22:06:06.970Z,47.98
2023-01-10T22:08:33.755Z,48.10
2023-01-10T22:11:00.532Z,47.91
2023-01-10T22:13:27.307Z,48.24
2023-01-10T22:16:01.232Z,48.05
2023-01-10T22:18:29.667Z,48.16
2023-01-10T22:20:57.781Z,48.16
2023-01-10T22:23:27.640Z,48.44
2023-01-10T22:26:02.104Z,48.53
2023-01-10T22:28:29.175Z,48.48
2023-01-10T22:30:56.071Z,48.63
2023-01-10T22:33:23.999Z,48.61
2023-01-10T22:35:50.761Z,48.39
2023-01-10T22:38:17.572Z,48.58
2023-01-10T22:40:44.392Z,48.63
2023-01-10T22:43:11.292Z,48.84
2023-01-10T22:45:44.293Z,48.33
2023-01-10T22:48:11.127Z,48.96
2023-01-10T22:50:37.923Z,48.78
2023-01-10T22:53:04.767Z,48.93
2023-01-10T22:55:34.388Z,49.15
2023-01-10T22:58:01.153Z,49.58
2023-01-10T23:00:28.800Z,49.32
2023-01-10T23:02:55.565Z,49.36
2023-01-10T23:05:22.425Z,49.52
2023-01-10T23:07:51.414Z,49.60
2023-01-10T23:10:29.672Z,49.83
2023-01-10T23:12:57.876Z,49.71
2023-01-10T23:15:24.713Z,49.79
2023-01-10T23:17:51.579Z,49.80
2023-01-10T23:20:18.404Z,49.93
2023-01-10T23:22:45.196Z,49.74
2023-01-10T23:25:11.986Z,49.50
2023-01-10T23:27:39.711Z,49.49
2023-01-10T23:30:09.049Z,49.53
2023-01-10T23:32:35.921Z,49.98
2023-01-10T23:35:03.002Z,49.51
2023-01-10T23:37:29.762Z,49.78
2023-01-10T23:39:56.584Z,49.70
2023-01-10T23:42:23.343Z,49.68
2023-01-10T23:44:50.153Z,49.51
2023-01-10T23:47:16.928Z,49.19
2023-01-10T23:49:43.732Z,49.84
2023-01-10T23:52:10.519Z,49.50
2023-01-10T23:54:37.297Z,49.31
2023-01-10T23:57:04.165Z,49.43
2023-01-10T23:59:30.916Z,49.61
